Time;durP1;ratioP1;P1;durP2;ratioP2;P2;SDS_P1;SDS_P2;PMS_P1;PMS_P2;Temp;Humidity;BMP_temperature;BMP_pressure;BME280_temperature;BME280_humidity;BME280_pressure;Samples;Min_cycle;Max_cycle;Signal;HPM_P1;HPM_P2
2024/02/21 00:00:39;;;;;;;10.75;5.57;;;10.10;92.10;;;;;;4961297;28;20022;-76
2024/02/21 00:03:04;;;;;;;11.20;5.35;;;10.10;92.10;;;;;;4978103;28;20102;-76
2024/02/21 00:05:30;;;;;;;10.18;4.95;;;10.10;92.10;;;;;;4973086;28;20126;-75
2024/02/21 00:07:58;;;;;;;11.43;5.20;;;10.10;92.00;;;;;;4960611;28;20453;-77
2024/02/21 00:10:24;;;;;;;9.48;4.95;;;10.10;91.80;;;;;;4961513;28;20027;-75
2024/02/21 00:12:53;;;;;;;9.35;4.35;;;10.10;91.80;;;;;;4959656;28;20516;-75
2024/02/21 00:15:19;;;;;;;12.27;5.13;;;10.10;91.80;;;;;;4960879;28;20112;-76
2024/02/21 00:17:44;;;;;;;8.82;5.05;;;10.10;91.80;;;;;;4962688;28;20110;-75
2024/02/21 00:20:10;;;;;;;9.80;6.10;;;10.10;91.70;;;;;;4960652;28;20169;-75
2024/02/21 00:22:37;;;;;;;12.23;6.53;;;10.10;91.40;;;;;;4955386;28;20359;-75
2024/02/21 00:25:03;;;;;;;13.57;7.25;;;10.10;91.50;;;;;;4962966;28;20034;-75
2024/02/21 00:27:29;;;;;;;11.50;6.78;;;10.10;91.50;;;;;;4977847;28;20030;-75
2024/02/21 00:29:55;;;;;;;11.75;6.97;;;10.00;91.60;;;;;;4973363;28;20436;-77
2024/02/21 00:32:20;;;;;;;12.63;6.88;;;10.10;91.80;;;;;;4958668;28;20114;-75
2024/02/21 00:34:46;;;;;;;14.98;7.57;;;10.00;91.90;;;;;;4958595;28;20133;-77
2024/02/21 00:37:12;;;;;;;19.15;9.18;;;9.90;92.00;;;;;;4978494;28;20057;-77
2024/02/21 00:39:37;;;;;;;17.00;9.25;;;9.80;92.40;;;;;;4974580;28;20089;-75
2024/02/21 00:42:03;;;;;;;18.17;9.18;;;9.80;92.70;;;;;;4956262;28;20077;-75
2024/02/21 00:44:29;;;;;;;19.63;11.32;;;9.70;93.00;;;;;;4957372;28;20046;-75
2024/02/21 00:46:55;;;;;;;21.95;10.35;;;9.70;93.40;;;;;;4975914;28;20034;-75
2024/02/21 00:49:21;;;;;;;21.58;10.93;;;9.60;93.60;;;;;;4973374;28;20065;-75
2024/02/21 00:51:47;;;;;;;22.25;11.90;;;9.60;93.90;;;;;;4977456;28;20417;-75
2024/02/21 00:54:12;;;;;;;25.05;11.88;;;9.50;94.20;;;;;;4977166;28;20065;-77
2024/02/21 00:56:38;;;;;;;25.65;12.63;;;9.50;94.50;;;;;;4976977;28;20042;-75
2024/02/21 00:59:04;;;;;;;23.98;12.18;;;9.40;94.70;;;;;;4981084;28;20650;-74
2024/02/21 01:01:29;;;;;;;21.20;12.23;;;9.50;94.70;;;;;;4975665;28;20047;-74
2024/02/21 01:03:55;;;;;;;23.08;11.73;;;9.40;94.80;;;;;;4973524;28;20436;-75
2024/02/21 01:06:21;;;;;;;28.95;12.45;;;9.40;94.80;;;;;;4991446;28;20501;-76
2024/02/21 01:08:49;;;;;;;26.73;13.13;;;9.40;94.90;;;;;;4976821;28;20070;-75
2024/02/21 01:11:16;;;;;;;24.27;13.35;;;9.40;95.00;;;;;;4975160;28;20023;-75
2024/02/21 01:13:41;;;;;;;27.23;13.95;;;9.40;95.10;;;;;;4978029;28;20030;-77
2024/02/21 01:16:07;;;;;;;28.20;12.52;;;9.30;95.10;;;;;;4961982;28;20373;-76
2024/02/21 01:18:34;;;;;;;23.38;11.45;;;9.30;95.10;;;;;;4958562;28;20046;-75
2024/02/21 01:21:00;;;;;;;22.70;12.20;;;9.30;95.10;;;;;;4958085;28;20109;-76
2024/02/21 01:23:25;;;;;;;26.55;13.00;;;9.20;95.10;;;;;;4955009;28;20513;-76
2024/02/21 01:25:51;;;;;;;24.38;11.63;;;9.30;95.20;;;;;;4954079;28;20118;-75
2024/02/21 01:28:17;;;;;;;26.55;12.18;;;9.20;95.30;;;;;;4962849;28;20058;-76
2024/02/21 01:30:43;;;;;;;27.55;13.20;;;9.20;95.30;;;;;;4968031;28;20030;-77
2024/02/21 01:33:09;;;;;;;22.05;11.85;;;9.20;95.20;;;;;;4978525;28;20030;-77
2024/02/21 01:35:35;;;;;;;28.77;12.23;;;9.30;95.20;;;;;;4967903;28;20129;-77
2024/02/21 01:38:01;;;;;;;25.23;11.80;;;9.20;95.20;;;;;;4958088;28;20049;-75
2024/02/21 01:40:26;;;;;;;26.15;11.60;;;9.20;95.10;;;;;;4963247;28;20046;-76
2024/02/21 01:42:56;;;;;;;28.77;11.45;;;9.20;95.20;;;;;;4979166;28;20081;-76
2024/02/21 01:45:21;;;;;;;25.60;11.45;;;9.10;95.10;;;;;;4975067;28;20123;-75
2024/02/21 01:47:49;;;;;;;28.02;12.25;;;9.10;95.10;;;;;;4974410;28;20387;-76
2024/02/21 01:50:16;;;;;;;22.00;10.77;;;9.10;95.10;;;;;;4970478;28;20071;-75
2024/02/21 01:52:45;;;;;;;24.30;11.02;;;9.10;95.10;;;;;;4974721;28;20023;-76
2024/02/21 01:55:13;;;;;;;28.75;11.25;;;9.10;95.10;;;;;;4975353;28;20109;-77
2024/02/21 01:57:40;;;;;;;22.33;10.43;;;9.10;95.10;;;;;;4974914;28;20023;-77
2024/02/21 02:00:07;;;;;;;19.45;10.20;;;9.10;95.00;;;;;;4973254;28;20073;-75
2024/02/21 02:02:33;;;;;;;26.65;10.75;;;9.00;95.00;;;;;;4968037;28;20665;-76
2024/02/21 02:05:00;;;;;;;23.90;9.98;;;9.00;95.10;;;;;;4971374;28;20434;-76
2024/02/21 02:07:26;;;;;;;26.42;10.60;;;9.00;95.10;;;;;;4973712;28;20018;-74
2024/02/21 02:09:52;;;;;;;25.98;10.02;;;9.00;95.10;;;;;;4968605;28;20461;-75
2024/02/21 02:12:17;;;;;;;27.30;11.27;;;9.00;95.10;;;;;;4950469;28;20505;-75
2024/02/21 02:14:43;;;;;;;23.67;10.70;;;8.90;95.00;;;;;;4959229;28;20118;-74
2024/02/21 02:17:09;;;;;;;28.05;11.35;;;8.90;95.10;;;;;;4975534;28;20428;-74
2024/02/21 02:19:35;;;;;;;24.58;11.05;;;8.90;95.10;;;;;;4974167;28;20076;-75
2024/02/21 02:22:14;;;;;;;21.17;10.82;;;8.90;95.10;;;;;;4975584;28;20042;-77
2024/02/21 02:24:40;;;;;;;26.67;11.52;;;9.00;95.20;;;;;;4986179;28;20069;-76
2024/02/21 02:27:05;;;;;;;26.95;11.45;;;9.00;95.10;;;;;;4960802;28;20094;-75
2024/02/21 02:29:32;;;;;;;23.10;10.13;;;9.00;95.10;;;;;;4958883;28;20077;-75
2024/02/21 02:31:58;;;;;;;20.38;10.50;;;9.10;95.10;;;;;;4971965;28;20039;-77
2024/02/21 02:34:24;;;;;;;23.40;10.75;;;9.10;95.10;;;;;;4975597;28;20023;-76
2024/02/21 02:36:49;;;;;;;22.38;11.23;;;9.10;95.00;;;;;;4971430;28;20054;-74
2024/02/21 02:39:15;;;;;;;25.55;11.18;;;9.10;94.90;;;;;;4976583;28;20045;-76
2024/02/21 02:41:40;;;;;;;22.40;11.20;;;9.10;94.90;;;;;;4961309;28;20030;-75
2024/02/21 02:44:06;;;;;;;25.13;11.13;;;9.10;94.90;;;;;;4979816;28;20515;-77
2024/02/21 02:46:32;;;;;;;22.48;10.90;;;9.20;94.90;;;;;;4976188;28;20026;-73
2024/02/21 02:48:57;;;;;;;23.35;10.93;;;9.20;94.80;;;;;;4977717;28;20049;-75
2024/02/21 02:51:23;;;;;;;21.45;11.45;;;9.20;94.70;;;;;;4964641;28;20509;-74
2024/02/21 02:53:49;;;;;;;24.67;11.57;;;9.20;94.60;;;;;;4954226;28;20038;-75
2024/02/21 02:56:15;;;;;;;21.40;10.25;;;9.20;94.70;;;;;;4964715;28;20038;-78
2024/02/21 02:58:42;;;;;;;22.63;10.52;;;9.20;94.60;;;;;;4977432;28;20066;-76
2024/02/21 03:01:08;;;;;;;24.13;10.70;;;9.20;94.60;;;;;;4972414;28;20114;-77
2024/02/21 03:03:33;;;;;;;24.25;10.77;;;9.20;94.60;;;;;;4978612;28;20350;-77
2024/02/21 03:05:59;;;;;;;22.77;9.93;;;9.20;94.50;;;;;;4973630;28;20046;-76
2024/02/21 03:08:24;;;;;;;22.38;10.35;;;9.20;94.50;;;;;;4972813;28;20035;-76
2024/02/21 03:10:50;;;;;;;23.45;9.98;;;9.30;94.50;;;;;;4976132;28;20479;-76
2024/02/21 03:13:16;;;;;;;27.40;10.88;;;9.30;94.30;;;;;;4976319;28;20445;-79
2024/02/21 03:15:41;;;;;;;28.17;11.27;;;9.30;94.20;;;;;;4977166;28;20066;-79
2024/02/21 03:18:07;;;;;;;23.88;10.55;;;9.20;94.20;;;;;;4982831;28;20030;-77
2024/02/21 03:20:33;;;;;;;22.48;11.23;;;9.20;94.20;;;;;;4968424;28;20045;-75
2024/02/21 03:22:58;;;;;;;21.42;10.95;;;9.20;94.30;;;;;;4956967;28;20567;-77
2024/02/21 03:25:24;;;;;;;24.40;11.77;;;9.20;94.30;;;;;;4963696;28;20129;-77
2024/02/21 03:27:49;;;;;;;24.05;11.80;;;9.20;94.20;;;;;;4975205;28;20151;-75
2024/02/21 03:30:15;;;;;;;22.95;11.57;;;9.20;94.30;;;;;;4973869;28;20064;-76
2024/02/21 03:32:41;;;;;;;22.48;11.38;;;9.10;94.20;;;;;;4978201;28;20029;-75
2024/02/21 03:35:07;;;;;;;24.85;12.52;;;9.10;94.40;;;;;;4967244;28;20210;-78
2024/02/21 03:37:32;;;;;;;26.00;12.45;;;9.10;94.40;;;;;;4957041;28;20350;-75
2024/02/21 03:39:58;;;;;;;25.02;12.38;;;9.10;94.40;;;;;;4958591;28;20046;-76
2024/02/21 03:42:23;;;;;;;21.85;11.50;;;9.10;94.40;;;;;;4978296;28;20035;-75
2024/02/21 03:44:49;;;;;;;29.83;12.18;;;9.10;94.50;;;;;;4957956;28;20030;-76
2024/02/21 03:47:15;;;;;;;24.83;12.35;;;9.10;94.50;;;;;;4946819;28;20530;-78
2024/02/21 03:49:40;;;;;;;26.02;11.80;;;9.10;94.50;;;;;;4955725;28;20043;-75
2024/02/21 03:52:06;;;;;;;23.23;12.05;;;9.10;94.50;;;;;;4977253;28;20349;-77
2024/02/21 03:54:32;;;;;;;23.02;11.68;;;9.10;94.40;;;;;;4977371;28;20096;-77
2024/02/21 03:56:57;;;;;;;29.15;12.07;;;9.10;94.50;;;;;;4976417;28;20026;-76
2024/02/21 03:59:23;;;;;;;21.50;12.43;;;9.20;94.40;;;;;;4974511;28;20110;-77
2024/02/21 04:01:55;;;;;;;23.55;13.73;;;9.10;94.30;;;;;;4971201;28;20465;-76
2024/02/21 04:04:21;;;;;;;23.60;12.63;;;9.10;94.30;;;;;;4972391;28;20263;-77
2024/02/21 04:06:50;;;;;;;24.23;12.57;;;9.10;94.20;;;;;;4953045;28;20377;-76
2024/02/21 04:09:16;;;;;;;23.08;13.40;;;9.20;94.30;;;;;;4955502;28;20109;-78
2024/02/21 04:11:42;;;;;;;25.67;12.95;;;9.20;94.30;;;;;;4976733;28;20041;-78
2024/02/21 04:14:07;;;;;;;25.48;13.57;;;9.20;94.20;;;;;;4981623;28;20034;-75
2024/02/21 04:16:34;;;;;;;25.30;12.43;;;9.20;94.20;;;;;;4957040;28;20544;-76
2024/02/21 04:19:01;;;;;;;21.73;11.27;;;9.20;94.20;;;;;;4960722;28;20030;-76
2024/02/21 04:21:27;;;;;;;23.80;12.57;;;9.20;94.20;;;;;;4972836;28;20049;-75
2024/02/21 04:23:53;;;;;;;22.70;12.68;;;9.20;94.20;;;;;;4981390;28;20069;-77
2024/02/21 04:26:18;;;;;;;23.00;12.50;;;9.20;94.20;;;;;;4973508;28;20133;-79
2024/02/21 04:28:45;;;;;;;24.60;13.30;;;9.20;94.30;;;;;;4982326;28;20027;-77
2024/02/21 04:31:11;;;;;;;22.70;12.38;;;9.20;94.30;;;;;;4976796;28;20035;-77
2024/02/21 04:33:36;;;;;;;26.90;13.98;;;9.20;94.20;;;;;;4980048;28;20061;-76
2024/02/21 04:36:02;;;;;;;18.20;12.55;;;9.10;94.30;;;;;;4965359;28;20126;-77
2024/02/21 04:38:28;;;;;;;27.58;13.60;;;9.20;94.30;;;;;;4958921;28;20150;-76
2024/02/21 04:40:58;;;;;;;26.73;13.60;;;9.20;94.30;;;;;;4963241;28;20472;-75
2024/02/21 04:43:24;;;;;;;25.02;12.82;;;9.10;94.30;;;;;;4979472;28;20018;-76
2024/02/21 04:45:50;;;;;;;26.38;14.32;;;9.10;94.30;;;;;;4975742;28;20038;-77
2024/02/21 04:48:16;;;;;;;21.80;13.55;;;9.10;94.40;;;;;;4980943;28;20026;-75
2024/02/21 04:50:41;;;;;;;24.33;13.25;;;9.10;94.40;;;;;;4980316;28;20026;-79
2024/02/21 04:53:07;;;;;;;26.92;15.05;;;9.10;94.50;;;;;;4985545;28;20028;-77
2024/02/21 04:55:33;;;;;;;26.10;13.98;;;9.10;94.60;;;;;;4980570;28;20392;-76
2024/02/21 04:57:59;;;;;;;23.75;15.32;;;9.10;94.70;;;;;;4982145;28;20022;-75
2024/02/21 05:00:24;;;;;;;24.05;14.45;;;9.10;94.70;;;;;;4980664;28;20057;-77
2024/02/21 05:02:50;;;;;;;24.20;13.65;;;9.10;94.70;;;;;;4984429;28;20032;-76
2024/02/21 05:05:16;;;;;;;27.45;13.70;;;9.10;94.70;;;;;;4979235;28;21924;-76
2024/02/21 05:07:42;;;;;;;25.20;13.45;;;9.10;94.70;;;;;;4979868;28;20022;-79
2024/02/21 05:10:09;;;;;;;23.95;13.68;;;9.10;94.70;;;;;;4978330;28;20039;-76
2024/02/21 05:12:35;;;;;;;20.67;13.70;;;9.10;94.80;;;;;;4977629;28;20034;-76
2024/02/21 05:15:01;;;;;;;25.23;14.05;;;9.10;94.80;;;;;;4976447;28;20515;-79
2024/02/21 05:17:26;;;;;;;23.70;14.38;;;9.10;94.80;;;;;;4976130;28;21104;-75
2024/02/21 05:19:52;;;;;;;26.48;14.23;;;9.10;94.90;;;;;;4975162;28;20042;-76
2024/02/21 05:22:17;;;;;;;23.23;14.10;;;9.10;94.90;;;;;;4972421;28;20571;-77
2024/02/21 05:24:43;;;;;;;25.60;14.48;;;9.10;94.90;;;;;;4979080;28;20038;-74
2024/02/21 05:27:09;;;;;;;25.98;14.10;;;9.10;94.80;;;;;;4963474;28;20058;-76
2024/02/21 05:29:34;;;;;;;21.88;14.43;;;9.10;94.80;;;;;;4969668;28;20050;-77
2024/02/21 05:32:00;;;;;;;24.95;14.38;;;9.10;94.90;;;;;;4987371;28;20515;-76
2024/02/21 05:34:26;;;;;;;23.42;14.68;;;9.10;94.80;;;;;;4982037;28;20510;-76
2024/02/21 05:36:52;;;;;;;25.33;15.15;;;9.10;94.80;;;;;;4978253;28;20034;-74
2024/02/21 05:39:18;;;;;;;23.33;14.60;;;9.10;94.80;;;;;;4976644;28;20476;-73
2024/02/21 05:41:44;;;;;;;25.40;14.70;;;9.10;94.80;;;;;;4975638;28;20037;-75
2024/02/21 05:44:10;;;;;;;22.48;14.65;;;9.10;94.80;;;;;;4977410;28;20030;-75
2024/02/21 05:46:36;;;;;;;30.85;15.65;;;9.10;94.90;;;;;;4972236;28;20034;-77
2024/02/21 05:49:01;;;;;;;32.50;15.80;;;9.10;94.90;;;;;;4978191;28;20396;-75
2024/02/21 05:51:27;;;;;;;25.13;16.40;;;9.10;94.90;;;;;;4975771;28;20050;-76
2024/02/21 05:53:53;;;;;;;34.28;16.15;;;9.10;94.90;;;;;;4979934;28;20104;-77
2024/02/21 05:56:19;;;;;;;24.88;15.80;;;9.10;95.00;;;;;;4975376;28;20089;-76
2024/02/21 05:58:45;;;;;;;27.40;15.98;;;9.10;95.00;;;;;;4976998;28;20117;-76
2024/02/21 06:01:11;;;;;;;24.50;14.30;;;9.10;94.90;;;;;;4957327;28;20081;-74
2024/02/21 06:03:37;;;;;;;27.95;15.45;;;9.00;95.00;;;;;;4956960;28;20027;-75
2024/02/21 06:06:04;;;;;;;25.48;15.50;;;9.00;95.00;;;;;;4966737;28;20034;-75
2024/02/21 06:08:30;;;;;;;22.25;13.98;;;9.10;95.00;;;;;;4976798;28;20421;-75
2024/02/21 06:10:56;;;;;;;27.58;15.05;;;9.00;94.90;;;;;;4977585;28;20105;-76
2024/02/21 06:13:23;;;;;;;25.63;15.00;;;9.00;94.90;;;;;;4977275;28;20022;-78
2024/02/21 06:15:50;;;;;;;24.45;15.98;;;9.00;94.90;;;;;;4976922;28;20068;-78
2024/02/21 06:18:19;;;;;;;26.85;15.23;;;9.10;94.90;;;;;;4976428;28;20308;-77
2024/02/21 06:20:48;;;;;;;25.60;15.13;;;9.00;95.00;;;;;;4974595;28;20476;-77
2024/02/21 06:23:16;;;;;;;26.80;15.70;;;9.00;95.00;;;;;;4973498;28;20522;-78
2024/02/21 06:25:42;;;;;;;27.27;15.05;;;9.00;94.90;;;;;;4976094;28;20038;-77
2024/02/21 06:28:08;;;;;;;24.50;15.38;;;9.00;95.00;;;;;;4977144;28;20031;-76
2024/02/21 06:30:33;;;;;;;23.42;15.07;;;9.00;95.00;;;;;;4965887;28;20378;-75
2024/02/21 06:32:59;;;;;;;24.38;15.20;;;9.10;95.00;;;;;;4947357;28;20440;-76
2024/02/21 06:35:25;;;;;;;27.23;15.35;;;9.00;95.00;;;;;;4958612;28;20042;-75
2024/02/21 06:37:54;;;;;;;24.20;15.55;;;9.00;95.00;;;;;;4978486;28;20101;-76
2024/02/21 06:40:22;;;;;;;24.65;16.63;;;9.10;95.10;;;;;;4969087;28;20113;-76
2024/02/21 06:42:48;;;;;;;27.13;15.63;;;9.10;94.90;;;;;;4979636;28;20329;-76
2024/02/21 06:45:14;;;;;;;21.48;15.07;;;9.00;95.00;;;;;;4972164;28;20105;-76
2024/02/21 06:47:40;;;;;;;24.77;15.90;;;9.00;95.10;;;;;;4975202;28;20034;-75
2024/02/21 06:50:06;;;;;;;24.45;15.30;;;9.00;95.00;;;;;;4974622;28;20263;-77
2024/02/21 06:52:31;;;;;;;27.23;14.90;;;9.00;95.10;;;;;;4977748;28;20037;-75
2024/02/21 06:54:57;;;;;;;26.17;15.48;;;9.00;95.00;;;;;;4972109;28;20034;-75
2024/02/21 06:57:23;;;;;;;26.33;15.30;;;9.00;95.00;;;;;;4975658;28;20029;-75
2024/02/21 06:59:49;;;;;;;28.77;16.85;;;9.10;95.00;;;;;;4972751;28;20394;-78
2024/02/21 07:02:14;;;;;;;22.42;16.27;;;9.10;95.00;;;;;;4973009;28;20042;-78
2024/02/21 07:04:40;;;;;;;24.08;16.25;;;9.00;95.00;;;;;;4972738;28;20086;-77
2024/02/21 07:07:05;;;;;;;28.33;17.17;;;9.00;95.00;;;;;;4975354;28;20451;-77
2024/02/21 07:09:32;;;;;;;24.60;15.85;;;9.00;95.00;;;;;;4974066;28;20053;-74
2024/02/21 07:11:58;;;;;;;23.77;16.63;;;9.00;95.00;;;;;;4972646;28;20106;-73
2024/02/21 07:14:24;;;;;;;27.17;18.60;;;9.00;95.00;;;;;;4971998;28;20069;-77
2024/02/21 07:16:50;;;;;;;27.15;17.90;;;9.00;95.00;;;;;;4977010;28;20130;-74
2024/02/21 07:19:16;;;;;;;27.35;19.00;;;9.10;95.00;;;;;;4976648;28;20140;-82
2024/02/21 07:21:42;;;;;;;27.80;18.45;;;9.10;95.00;;;;;;4975664;28;20026;-81
2024/02/21 07:24:08;;;;;;;24.38;18.52;;;9.10;95.10;;;;;;4979014;28;20080;-82
2024/02/21 07:26:34;;;;;;;26.73;17.67;;;9.10;94.90;;;;;;4979655;28;20027;-79
2024/02/21 07:28:59;;;;;;;26.23;18.38;;;9.10;94.80;;;;;;4980495;28;20041;-87
2024/02/21 07:31:25;;;;;;;25.42;18.38;;;9.10;94.80;;;;;;4976691;28;20117;-80
2024/02/21 07:33:51;;;;;;;24.95;17.75;;;9.10;94.80;;;;;;4974742;28;20144;-81
2024/02/21 07:36:28;;;;;;;25.50;18.67;;;9.10;94.80;;;;;;4971082;28;20075;-82
2024/02/21 07:38:54;;;;;;;26.15;19.00;;;9.10;94.80;;;;;;4977395;28;20034;-75
2024/02/21 07:41:19;;;;;;;25.30;17.30;;;9.10;94.80;;;;;;4973797;28;20089;-79
2024/02/21 07:43:45;;;;;;;27.48;18.65;;;9.10;94.70;;;;;;4977264;28;20022;-79
2024/02/21 07:46:10;;;;;;;30.13;18.38;;;9.20;94.60;;;;;;4973958;28;20037;-77
2024/02/21 07:48:36;;;;;;;24.67;18.60;;;9.10;94.70;;;;;;4980390;28;20451;-76
2024/02/21 07:51:02;;;;;;;25.15;18.25;;;9.20;94.80;;;;;;4976964;28;20209;-76
2024/02/21 07:53:27;;;;;;;26.58;17.85;;;9.20;94.70;;;;;;4978282;28;20564;-78
2024/02/21 07:55:53;;;;;;;26.77;20.88;;;9.10;94.60;;;;;;4972331;28;20034;-78
2024/02/21 07:58:18;;;;;;;30.52;22.42;;;9.20;94.60;;;;;;4980563;28;20551;-78
2024/02/21 08:00:44;;;;;;;47.08;34.15;;;9.20;94.50;;;;;;4968319;28;20050;-78
2024/02/21 08:03:10;;;;;;;28.90;18.98;;;9.30;94.50;;;;;;4961550;28;20385;-79
2024/02/21 08:05:35;;;;;;;30.23;23.75;;;9.20;94.50;;;;;;4975437;28;20022;-78
2024/02/21 08:08:02;;;;;;;26.30;16.17;;;9.20;94.50;;;;;;4975064;28;20036;-74
2024/02/21 08:10:28;;;;;;;27.63;17.42;;;9.20;94.40;;;;;;4975913;28;20073;-74
2024/02/21 08:12:53;;;;;;;27.70;18.35;;;9.30;94.30;;;;;;4979619;28;20080;-75
2024/02/21 08:15:20;;;;;;;25.40;17.42;;;9.20;94.10;;;;;;4978141;28;20061;-75
2024/02/21 08:17:46;;;;;;;40.35;18.90;;;9.20;94.10;;;;;;4979707;28;20413;-74
2024/02/21 08:20:11;;;;;;;26.85;17.92;;;9.20;94.10;;;;;;4977329;28;20043;-74
2024/02/21 08:22:38;;;;;;;30.63;17.52;;;9.10;94.00;;;;;;4977492;28;20468;-74
2024/02/21 08:25:05;;;;;;;29.55;17.15;;;9.20;93.90;;;;;;4978964;28;20073;-74
2024/02/21 08:27:31;;;;;;;28.67;17.65;;;9.20;93.90;;;;;;4979735;28;20030;-74
2024/02/21 08:29:56;;;;;;;25.70;15.85;;;9.20;93.80;;;;;;4975996;28;20048;-76
2024/02/21 08:32:22;;;;;;;24.23;16.77;;;9.20;93.60;;;;;;4977282;28;20022;-75
2024/02/21 08:34:48;;;;;;;24.98;17.35;;;9.20;93.60;;;;;;4976198;28;20414;-73
2024/02/21 08:37:13;;;;;;;26.10;16.60;;;9.20;93.30;;;;;;4978448;28;20539;-75
2024/02/21 08:39:39;;;;;;;26.58;16.52;;;9.30;93.30;;;;;;4971343;28;20409;-75
2024/02/21 08:42:05;;;;;;;26.98;17.27;;;9.30;93.10;;;;;;4961166;28;20027;-74
2024/02/21 08:44:30;;;;;;;24.45;17.00;;;9.30;93.00;;;;;;4952087;28;20042;-71
2024/02/21 08:46:56;;;;;;;26.42;16.83;;;9.30;93.00;;;;;;4956844;28;20041;-75
2024/02/21 08:49:22;;;;;;;21.85;15.40;;;9.30;92.90;;;;;;4959754;28;20461;-76
2024/02/21 08:51:47;;;;;;;26.63;15.68;;;9.30;93.00;;;;;;4979227;28;20037;-74
2024/02/21 08:54:13;;;;;;;28.30;16.15;;;9.30;92.90;;;;;;4979423;28;20022;-74
2024/02/21 08:56:39;;;;;;;28.35;16.88;;;9.30;92.80;;;;;;4981723;28;20030;-74
2024/02/21 08:59:04;;;;;;;25.27;17.48;;;9.40;92.70;;;;;;4978060;28;20035;-75
2024/02/21 09:01:30;;;;;;;21.85;14.93;;;9.40;92.80;;;;;;4977974;28;20114;-74
2024/02/21 09:03:56;;;;;;;28.15;14.90;;;9.50;92.70;;;;;;4978143;28;20513;-73
2024/02/21 09:06:22;;;;;;;22.10;15.20;;;9.50;92.40;;;;;;4976378;28;20034;-74
2024/02/21 09:08:48;;;;;;;25.02;14.48;;;9.60;92.40;;;;;;4979646;28;20026;-75
2024/02/21 09:11:14;;;;;;;25.05;14.77;;;9.60;92.20;;;;;;4965297;28;20231;-73
2024/02/21 09:13:40;;;;;;;26.42;14.85;;;9.60;92.10;;;;;;4959500;28;20350;-74
2024/02/21 09:16:06;;;;;;;21.38;14.45;;;9.60;91.90;;;;;;4964420;28;20038;-73
2024/02/21 09:18:31;;;;;;;21.85;13.30;;;9.70;91.90;;;;;;4957108;28;20026;-74
2024/02/21 09:20:57;;;;;;;22.75;13.93;;;9.70;91.80;;;;;;4987172;28;20476;-73
2024/02/21 09:23:26;;;;;;;21.80;12.65;;;9.70;91.90;;;;;;4977664;28;20022;-72
2024/02/21 09:25:51;;;;;;;20.48;13.63;;;9.70;91.80;;;;;;4979253;28;20062;-73
2024/02/21 09:28:17;;;;;;;22.67;13.98;;;9.80;91.60;;;;;;4978246;28;20109;-73
2024/02/21 09:30:43;;;;;;;24.92;15.25;;;9.80;91.50;;;;;;4977703;28;20045;-74
2024/02/21 09:33:08;;;;;;;20.80;13.77;;;9.80;91.40;;;;;;4977388;28;20019;-73
2024/02/21 09:35:34;;;;;;;19.73;13.35;;;9.90;91.40;;;;;;4977242;28;20042;-72
2024/02/21 09:38:01;;;;;;;20.38;12.85;;;9.90;91.20;;;;;;4978803;28;20034;-74
2024/02/21 09:40:27;;;;;;;17.67;12.93;;;9.90;91.20;;;;;;4977194;28;20109;-74
2024/02/21 09:43:06;;;;;;;19.42;11.93;;;10.00;90.90;;;;;;4974798;28;20034;-72
2024/02/21 09:45:33;;;;;;;20.67;12.93;;;10.10;90.90;;;;;;4974583;28;20046;-72
2024/02/21 09:47:59;;;;;;;20.42;12.23;;;10.10;90.90;;;;;;4977499;28;20018;-74
2024/02/21 09:50:26;;;;;;;18.42;10.65;;;10.10;90.60;;;;;;4977872;28;20410;-75
2024/02/21 09:52:54;;;;;;;20.52;11.85;;;10.10;90.60;;;;;;4976676;28;20039;-74
2024/02/21 09:55:21;;;;;;;21.23;11.60;;;10.10;90.40;;;;;;4974991;28;20046;-76
2024/02/21 09:57:47;;;;;;;18.83;11.60;;;10.10;90.60;;;;;;4991289;28;20026;-75
2024/02/21 10:00:21;;;;;;;22.65;14.40;;;10.10;90.40;;;;;;4970987;28;20058;-74
2024/02/21 10:02:50;;;;;;;28.02;16.65;;;10.10;90.40;;;;;;4957769;28;20469;-73
2024/02/21 10:05:17;;;;;;;23.58;14.25;;;10.10;90.20;;;;;;4966943;28;20058;-75
2024/02/21 10:07:43;;;;;;;17.92;11.48;;;10.10;90.50;;;;;;4975773;28;20046;-75
2024/02/21 10:10:10;;;;;;;16.38;10.60;;;10.10;90.30;;;;;;4969444;28;20437;-74
2024/02/21 10:12:35;;;;;;;18.40;11.10;;;10.20;90.40;;;;;;4976671;28;20053;-75
2024/02/21 10:15:06;;;;;;;19.73;10.85;;;10.20;90.20;;;;;;4973742;28;20309;-74
2024/02/21 10:17:36;;;;;;;17.23;11.43;;;10.20;90.20;;;;;;4957632;28;20126;-73
2024/02/21 10:20:11;;;;;;;18.30;10.48;;;10.20;90.10;;;;;;4961882;28;20540;-74
2024/02/21 10:22:39;;;;;;;16.63;11.43;;;10.20;90.10;;;;;;4977436;28;20064;-75
2024/02/21 10:25:12;;;;;;;16.23;12.10;;;10.20;90.10;;;;;;4973856;28;20328;-74
2024/02/21 10:27:41;;;;;;;16.15;11.63;;;10.20;90.10;;;;;;4977060;28;20039;-74
2024/02/21 10:30:14;;;;;;;18.52;11.13;;;10.30;90.20;;;;;;4971735;28;20038;-76
2024/02/21 10:32:53;;;;;;;16.88;11.63;;;10.30;90.00;;;;;;4977283;28;20128;-76
2024/02/21 10:35:29;;;;;;;16.45;11.27;;;10.30;90.00;;;;;;4991327;28;20125;-77
2024/02/21 10:37:59;;;;;;;16.20;10.70;;;10.30;89.90;;;;;;4975495;28;20449;-76
2024/02/21 10:40:32;;;;;;;16.88;10.20;;;10.20;90.10;;;;;;4975119;28;20085;-77
2024/02/21 10:42:59;;;;;;;21.08;12.90;;;10.20;90.20;;;;;;4976578;28;20022;-76
2024/02/21 10:45:33;;;;;;;19.15;14.85;;;10.20;90.30;;;;;;4977699;28;20049;-76
2024/02/21 10:48:13;;;;;;;19.23;14.65;;;10.10;90.10;;;;;;4952186;28;20380;-75
2024/02/21 10:51:01;;;;;;;20.45;15.10;;;10.10;90.30;;;;;;4968758;28;20038;-77
2024/02/21 10:54:02;;;;;;;17.55;11.98;;;10.10;90.10;;;;;;4971672;28;20030;-76
2024/02/21 10:56:36;;;;;;;19.92;12.20;;;10.10;90.10;;;;;;4970091;28;20109;-76
2024/02/21 10:59:03;;;;;;;16.60;12.45;;;10.10;90.10;;;;;;4982249;28;20501;-74
2024/02/21 11:01:31;;;;;;;19.40;13.18;;;10.10;90.20;;;;;;4964789;28;20469;-78
2024/02/21 11:04:01;;;;;;;18.90;12.75;;;10.10;90.20;;;;;;4972453;28;20023;-75
2024/02/21 11:06:28;;;;;;;18.08;12.25;;;10.10;90.30;;;;;;4972207;28;20501;-76
2024/02/21 11:09:04;;;;;;;17.38;11.82;;;10.10;90.40;;;;;;4969488;28;20041;-76
2024/02/21 11:11:40;;;;;;;20.63;15.88;;;10.10;90.40;;;;;;4968732;28;20041;-80
2024/02/21 11:14:20;;;;;;;22.00;15.25;;;10.10;90.50;;;;;;4970362;28;20026;-79
2024/02/21 11:16:46;;;;;;;21.73;15.65;;;10.10;90.50;;;;;;4969365;28;20551;-79
2024/02/21 11:19:23;;;;;;;17.92;11.48;;;10.20;90.50;;;;;;4968547;28;20346;-77
2024/02/21 11:21:49;;;;;;;17.88;11.70;;;10.20;90.20;;;;;;4974684;28;20129;-76
2024/02/21 11:24:37;;;;;;;20.05;14.95;;;10.20;90.20;;;;;;4975977;28;20022;-78
2024/02/21 11:27:10;;;;;;;17.35;13.00;;;10.20;90.30;;;;;;4974925;28;20157;-76
2024/02/21 11:29:45;;;;;;;17.85;12.38;;;10.30;90.10;;;;;;4973010;28;20042;-76
2024/02/21 11:32:14;;;;;;;19.50;11.48;;;10.30;90.10;;;;;;4970513;28;20038;-77
2024/02/21 11:34:40;;;;;;;16.73;11.18;;;10.30;89.80;;;;;;4970848;28;20497;-77
2024/02/21 11:37:18;;;;;;;17.52;12.05;;;10.20;89.70;;;;;;4955293;28;20142;-78
2024/02/21 11:39:44;;;;;;;27.77;16.48;;;10.20;89.80;;;;;;4970494;28;20092;-78
2024/02/21 11:42:10;;;;;;;20.23;13.95;;;10.20;90.00;;;;;;4974032;28;20180;-77
2024/02/21 11:44:42;;;;;;;17.75;10.75;;;10.30;89.80;;;;;;4977203;28;20026;-78
2024/02/21 11:47:08;;;;;;;16.90;13.05;;;10.30;89.50;;;;;;4977615;28;20130;-77
2024/02/21 11:49:41;;;;;;;15.52;10.98;;;10.30;89.30;;;;;;4955012;28;20117;-77
2024/02/21 11:52:07;;;;;;;16.02;11.93;;;10.20;89.40;;;;;;4969093;28;20444;-77
2024/02/21 11:54:34;;;;;;;14.82;10.93;;;10.30;89.30;;;;;;4972683;28;20038;-78
2024/02/21 11:57:00;;;;;;;18.00;12.18;;;10.30;89.40;;;;;;4977957;28;20027;-77
2024/02/21 11:59:29;;;;;;;14.25;11.13;;;10.30;89.00;;;;;;4992708;28;20030;-78
2024/02/21 12:01:55;;;;;;;15.07;10.25;;;10.20;89.00;;;;;;4975640;28;20037;-76
2024/02/21 12:04:21;;;;;;;15.55;11.32;;;10.30;89.10;;;;;;4976316;28;20239;-76
2024/02/21 12:06:46;;;;;;;15.05;10.65;;;10.40;88.90;;;;;;4977774;28;20039;-77
2024/02/21 12:09:16;;;;;;;16.88;11.80;;;10.50;88.70;;;;;;4975252;28;20431;-74
2024/02/21 12:11:43;;;;;;;17.77;10.30;;;10.50;89.00;;;;;;4973943;28;20049;-74
2024/02/21 12:14:09;;;;;;;15.35;9.90;;;10.50;88.70;;;;;;4979004;28;20041;-74
2024/02/21 12:16:38;;;;;;;15.57;11.20;;;10.60;88.50;;;;;;4955703;28;20019;-74
2024/02/21 12:19:04;;;;;;;13.55;10.07;;;10.60;88.30;;;;;;4954427;28;20042;-74
2024/02/21 12:21:32;;;;;;;15.23;9.80;;;10.70;88.10;;;;;;4974459;28;20050;-73
2024/02/21 12:24:10;;;;;;;13.50;9.80;;;10.70;88.30;;;;;;4977688;28;20047;-72
2024/02/21 12:26:37;;;;;;;14.63;9.85;;;10.70;88.40;;;;;;4973053;28;20078;-73
2024/02/21 12:29:03;;;;;;;15.30;9.18;;;10.70;88.20;;;;;;4978475;28;20550;-75
2024/02/21 12:31:29;;;;;;;15.27;10.27;;;10.80;88.40;;;;;;4974147;28;20031;-74
2024/02/21 12:33:55;;;;;;;15.70;9.63;;;10.80;88.10;;;;;;4973638;28;20375;-74